sensor_id;sensor_type;location;lat;lon;timestamp;P1;durP1;ratioP1;P2;durP2;ratioP2
5684;SDS011;2865;53.114;9.130;2022-07-18T00:00:36;5.23;;;4.10;;
5684;SDS011;2865;53.114;9.130;2022-07-18T00:03:01;9.30;;;4.93;;
5684;SDS011;2865;53.114;9.130;2022-07-18T00:05:27;8.70;;;4.70;;
5684;SDS011;2865;53.114;9.130;2022-07-18T00:07:52;5.50;;;4.30;;
5684;SDS011;2865;53.114;9.130;2022-07-18T00:10:17;6.47;;;5.27;;
5684;SDS011;2865;53.114;9.130;2022-07-18T00:12:42;7.87;;;5.27;;
5684;SDS011;2865;53.114;9.130;2022-07-18T00:15:08;6.13;;;4.57;;
5684;SDS011;2865;53.114;9.130;2022-07-18T00:17:34;5.40;;;4.60;;
5684;SDS011;2865;53.114;9.130;2022-07-18T00:19:59;5.33;;;4.80;;
5684;SDS011;2865;53.114;9.130;2022-07-18T00:22:24;6.40;;;4.97;;
5684;SDS011;2865;53.114;9.130;2022-07-18T00:24:50;7.00;;;4.57;;
5684;SDS011;2865;53.114;9.130;2022-07-18T00:27:15;7.07;;;5.13;;
5684;SDS011;2865;53.114;9.130;2022-07-18T00:29:40;6.50;;;5.27;;
5684;SDS011;2865;53.114;9.130;2022-07-18T00:32:06;7.53;;;4.83;;
5684;SDS011;2865;53.114;9.130;2022-07-18T00:34:31;5.70;;;4.50;;
5684;SDS011;2865;53.114;9.130;2022-07-18T00:36:56;6.50;;;5.63;;
5684;SDS011;2865;53.114;9.130;2022-07-18T00:39:22;5.50;;;4.87;;
5684;SDS011;2865;53.114;9.130;2022-07-18T00:41:47;9.10;;;4.90;;
5684;SDS011;2865;53.114;9.130;2022-07-18T00:44:20;7.03;;;4.63;;
5684;SDS011;2865;53.114;9.130;2022-07-18T00:46:45;7.13;;;5.27;;
5684;SDS011;2865;53.114;9.130;2022-07-18T00:49:10;5.80;;;5.20;;
5684;SDS011;2865;53.114;9.130;2022-07-18T00:51:35;7.07;;;4.37;;
5684;SDS011;2865;53.114;9.130;2022-07-18T00:54:01;7.20;;;5.00;;
5684;SDS011;2865;53.114;9.130;2022-07-18T00:56:26;6.33;;;4.57;;
5684;SDS011;2865;53.114;9.130;2022-07-18T00:58:51;8.40;;;4.43;;
5684;SDS011;2865;53.114;9.130;2022-07-18T01:01:17;8.50;;;4.47;;
5684;SDS011;2865;53.114;9.130;2022-07-18T01:03:48;6.20;;;5.47;;
5684;SDS011;2865;53.114;9.130;2022-07-18T01:06:13;6.37;;;4.87;;
5684;SDS011;2865;53.114;9.130;2022-07-18T01:08:39;5.23;;;3.73;;
5684;SDS011;2865;53.114;9.130;2022-07-18T01:11:05;4.93;;;3.83;;
5684;SDS011;2865;53.114;9.130;2022-07-18T01:13:29;5.20;;;4.70;;
5684;SDS011;2865;53.114;9.130;2022-07-18T01:15:55;5.30;;;4.20;;
5684;SDS011;2865;53.114;9.130;2022-07-18T01:18:20;6.27;;;4.87;;
5684;SDS011;2865;53.114;9.130;2022-07-18T01:20:46;5.90;;;4.10;;
5684;SDS011;2865;53.114;9.130;2022-07-18T01:23:11;4.70;;;4.30;;
5684;SDS011;2865;53.114;9.130;2022-07-18T01:25:36;5.70;;;4.73;;
5684;SDS011;2865;53.114;9.130;2022-07-18T01:28:02;8.17;;;4.80;;
5684;SDS011;2865;53.114;9.130;2022-07-18T01:30:27;6.20;;;4.80;;
5684;SDS011;2865;53.114;9.130;2022-07-18T01:32:54;5.03;;;4.53;;
5684;SDS011;2865;53.114;9.130;2022-07-18T01:35:21;8.13;;;4.43;;
5684;SDS011;2865;53.114;9.130;2022-07-18T01:37:44;5.77;;;4.80;;
5684;SDS011;2865;53.114;9.130;2022-07-18T01:40:10;5.43;;;4.90;;
5684;SDS011;2865;53.114;9.130;2022-07-18T01:42:36;8.90;;;5.07;;
5684;SDS011;2865;53.114;9.130;2022-07-18T01:45:01;6.73;;;4.80;;
5684;SDS011;2865;53.114;9.130;2022-07-18T01:47:27;7.10;;;5.20;;
5684;SDS011;2865;53.114;9.130;2022-07-18T01:49:52;9.40;;;5.43;;
5684;SDS011;2865;53.114;9.130;2022-07-18T01:52:17;7.20;;;5.97;;
5684;SDS011;2865;53.114;9.130;2022-07-18T01:54:43;8.40;;;5.10;;
5684;SDS011;2865;53.114;9.130;2022-07-18T01:57:08;8.10;;;5.70;;
5684;SDS011;2865;53.114;9.130;2022-07-18T01:59:34;6.47;;;4.97;;
5684;SDS011;2865;53.114;9.130;2022-07-18T02:01:59;7.33;;;5.00;;
5684;SDS011;2865;53.114;9.130;2022-07-18T02:04:24;6.13;;;4.20;;
5684;SDS011;2865;53.114;9.130;2022-07-18T02:06:49;6.70;;;4.60;;
5684;SDS011;2865;53.114;9.130;2022-07-18T02:09:15;4.67;;;4.17;;
5684;SDS011;2865;53.114;9.130;2022-07-18T02:11:40;6.60;;;5.00;;
5684;SDS011;2865;53.114;9.130;2022-07-18T02:14:05;5.83;;;4.70;;
5684;SDS011;2865;53.114;9.130;2022-07-18T02:16:31;5.13;;;4.63;;
5684;SDS011;2865;53.114;9.130;2022-07-18T02:18:56;6.23;;;4.50;;
5684;SDS011;2865;53.114;9.130;2022-07-18T02:21:21;5.90;;;5.37;;
5684;SDS011;2865;53.114;9.130;2022-07-18T02:23:46;7.70;;;4.53;;
5684;SDS011;2865;53.114;9.130;2022-07-18T02:26:12;6.80;;;5.60;;
5684;SDS011;2865;53.114;9.130;2022-07-18T02:28:37;8.57;;;4.67;;
5684;SDS011;2865;53.114;9.130;2022-07-18T02:31:03;5.40;;;4.90;;
5684;SDS011;2865;53.114;9.130;2022-07-18T02:33:28;6.83;;;5.47;;
5684;SDS011;2865;53.114;9.130;2022-07-18T02:35:53;5.63;;;5.03;;
5684;SDS011;2865;53.114;9.130;2022-07-18T02:38:18;6.00;;;5.33;;
5684;SDS011;2865;53.114;9.130;2022-07-18T02:40:44;8.17;;;5.37;;
5684;SDS011;2865;53.114;9.130;2022-07-18T02:43:09;5.70;;;4.10;;
5684;SDS011;2865;53.114;9.130;2022-07-18T02:45:35;6.40;;;5.80;;
5684;SDS011;2865;53.114;9.130;2022-07-18T02:48:00;5.57;;;4.47;;
5684;SDS011;2865;53.114;9.130;2022-07-18T02:50:25;7.33;;;5.17;;
5684;SDS011;2865;53.114;9.130;2022-07-18T02:52:50;6.23;;;5.23;;
5684;SDS011;2865;53.114;9.130;2022-07-18T02:55:16;7.80;;;5.03;;
5684;SDS011;2865;53.114;9.130;2022-07-18T02:57:41;6.00;;;5.43;;
5684;SDS011;2865;53.114;9.130;2022-07-18T03:00:07;5.73;;;4.97;;
5684;SDS011;2865;53.114;9.130;2022-07-18T03:02:33;7.50;;;5.40;;
5684;SDS011;2865;53.114;9.130;2022-07-18T03:04:58;5.83;;;5.10;;
5684;SDS011;2865;53.114;9.130;2022-07-18T03:07:23;7.43;;;5.00;;
5684;SDS011;2865;53.114;9.130;2022-07-18T03:09:48;5.93;;;5.13;;
5684;SDS011;2865;53.114;9.130;2022-07-18T03:12:14;6.27;;;5.57;;
5684;SDS011;2865;53.114;9.130;2022-07-18T03:14:39;6.60;;;5.57;;
5684;SDS011;2865;53.114;9.130;2022-07-18T03:17:04;9.03;;;5.40;;
5684;SDS011;2865;53.114;9.130;2022-07-18T03:19:30;5.87;;;5.27;;
5684;SDS011;2865;53.114;9.130;2022-07-18T03:21:55;5.67;;;5.07;;
5684;SDS011;2865;53.114;9.130;2022-07-18T03:24:21;7.43;;;5.57;;
5684;SDS011;2865;53.114;9.130;2022-07-18T03:26:46;6.87;;;5.27;;
5684;SDS011;2865;53.114;9.130;2022-07-18T03:29:11;6.17;;;4.80;;
5684;SDS011;2865;53.114;9.130;2022-07-18T03:31:37;4.70;;;4.20;;
5684;SDS011;2865;53.114;9.130;2022-07-18T03:34:02;5.50;;;4.97;;
5684;SDS011;2865;53.114;9.130;2022-07-18T03:36:27;4.63;;;4.23;;
5684;SDS011;2865;53.114;9.130;2022-07-18T03:38:53;5.83;;;5.07;;
5684;SDS011;2865;53.114;9.130;2022-07-18T03:41:18;5.13;;;4.63;;
5684;SDS011;2865;53.114;9.130;2022-07-18T03:43:43;5.83;;;4.47;;
5684;SDS011;2865;53.114;9.130;2022-07-18T03:46:09;8.57;;;5.53;;
5684;SDS011;2865;53.114;9.130;2022-07-18T03:48:34;6.37;;;5.00;;
5684;SDS011;2865;53.114;9.130;2022-07-18T03:50:59;9.53;;;5.07;;
5684;SDS011;2865;53.114;9.130;2022-07-18T03:53:25;8.27;;;4.57;;
5684;SDS011;2865;53.114;9.130;2022-07-18T03:55:50;5.80;;;4.67;;
5684;SDS011;2865;53.114;9.130;2022-07-18T03:58:15;4.87;;;4.37;;
5684;SDS011;2865;53.114;9.130;2022-07-18T04:00:41;5.03;;;4.53;;
5684;SDS011;2865;53.114;9.130;2022-07-18T04:03:06;7.17;;;5.43;;
5684;SDS011;2865;53.114;9.130;2022-07-18T04:05:31;6.87;;;5.00;;
5684;SDS011;2865;53.114;9.130;2022-07-18T04:07:57;4.83;;;4.40;;
5684;SDS011;2865;53.114;9.130;2022-07-18T04:10:22;5.50;;;5.00;;
5684;SDS011;2865;53.114;9.130;2022-07-18T04:12:48;6.60;;;5.43;;
5684;SDS011;2865;53.114;9.130;2022-07-18T04:15:13;5.93;;;4.50;;
5684;SDS011;2865;53.114;9.130;2022-07-18T04:17:38;6.90;;;4.87;;
5684;SDS011;2865;53.114;9.130;2022-07-18T04:20:03;5.20;;;4.70;;
5684;SDS011;2865;53.114;9.130;2022-07-18T04:22:29;4.67;;;4.23;;
5684;SDS011;2865;53.114;9.130;2022-07-18T04:24:54;4.30;;;4.00;;
5684;SDS011;2865;53.114;9.130;2022-07-18T04:27:20;4.87;;;4.37;;
5684;SDS011;2865;53.114;9.130;2022-07-18T04:29:45;7.00;;;4.80;;
5684;SDS011;2865;53.114;9.130;2022-07-18T04:32:10;6.40;;;4.63;;
5684;SDS011;2865;53.114;9.130;2022-07-18T04:34:36;7.83;;;5.43;;
5684;SDS011;2865;53.114;9.130;2022-07-18T04:37:01;6.23;;;4.50;;
5684;SDS011;2865;53.114;9.130;2022-07-18T04:39:26;9.20;;;4.57;;
5684;SDS011;2865;53.114;9.130;2022-07-18T04:41:51;7.03;;;4.10;;
5684;SDS011;2865;53.114;9.130;2022-07-18T04:44:17;7.53;;;4.57;;
5684;SDS011;2865;53.114;9.130;2022-07-18T04:46:42;9.40;;;5.17;;
5684;SDS011;2865;53.114;9.130;2022-07-18T04:49:07;6.20;;;4.23;;
5684;SDS011;2865;53.114;9.130;2022-07-18T04:51:33;5.80;;;4.03;;
5684;SDS011;2865;53.114;9.130;2022-07-18T04:53:58;5.83;;;5.07;;
5684;SDS011;2865;53.114;9.130;2022-07-18T04:56:23;6.23;;;4.90;;
5684;SDS011;2865;53.114;9.130;2022-07-18T04:58:49;5.40;;;3.93;;
5684;SDS011;2865;53.114;9.130;2022-07-18T05:01:14;6.17;;;4.30;;
5684;SDS011;2865;53.114;9.130;2022-07-18T05:03:39;6.23;;;4.40;;
5684;SDS011;2865;53.114;9.130;2022-07-18T05:06:05;4.93;;;4.30;;
5684;SDS011;2865;53.114;9.130;2022-07-18T05:08:30;4.97;;;4.20;;
5684;SDS011;2865;53.114;9.130;2022-07-18T05:10:55;4.83;;;4.33;;
5684;SDS011;2865;53.114;9.130;2022-07-18T05:13:20;6.20;;;4.50;;
5684;SDS011;2865;53.114;9.130;2022-07-18T05:15:46;5.30;;;4.30;;
5684;SDS011;2865;53.114;9.130;2022-07-18T05:18:11;10.40;;;4.30;;
5684;SDS011;2865;53.114;9.130;2022-07-18T05:20:37;6.87;;;3.93;;
5684;SDS011;2865;53.114;9.130;2022-07-18T05:23:02;4.23;;;3.87;;
5684;SDS011;2865;53.114;9.130;2022-07-18T05:25:27;3.67;;;3.37;;
5684;SDS011;2865;53.114;9.130;2022-07-18T05:27:53;3.90;;;3.60;;
5684;SDS011;2865;53.114;9.130;2022-07-18T05:30:18;7.43;;;4.30;;
5684;SDS011;2865;53.114;9.130;2022-07-18T05:32:44;4.20;;;3.07;;
5684;SDS011;2865;53.114;9.130;2022-07-18T05:35:09;3.73;;;3.27;;
5684;SDS011;2865;53.114;9.130;2022-07-18T05:37:35;5.80;;;3.30;;
5684;SDS011;2865;53.114;9.130;2022-07-18T05:40:00;3.20;;;2.90;;
5684;SDS011;2865;53.114;9.130;2022-07-18T05:42:25;4.10;;;3.17;;
5684;SDS011;2865;53.114;9.130;2022-07-18T05:44:51;6.50;;;3.40;;
5684;SDS011;2865;53.114;9.130;2022-07-18T05:47:16;6.70;;;2.97;;
5684;SDS011;2865;53.114;9.130;2022-07-18T05:49:41;4.80;;;3.47;;
5684;SDS011;2865;53.114;9.130;2022-07-18T05:52:07;9.13;;;3.00;;
5684;SDS011;2865;53.114;9.130;2022-07-18T05:54:32;3.23;;;2.90;;
5684;SDS011;2865;53.114;9.130;2022-07-18T05:56:58;2.60;;;2.40;;
5684;SDS011;2865;53.114;9.130;2022-07-18T05:59:23;3.90;;;2.83;;
5684;SDS011;2865;53.114;9.130;2022-07-18T06:01:48;9.50;;;3.27;;
5684;SDS011;2865;53.114;9.130;2022-07-18T06:04:14;3.77;;;2.77;;
5684;SDS011;2865;53.114;9.130;2022-07-18T06:06:39;4.80;;;2.60;;
5684;SDS011;2865;53.114;9.130;2022-07-18T06:09:05;5.27;;;2.90;;
5684;SDS011;2865;53.114;9.130;2022-07-18T06:11:30;3.07;;;2.77;;
5684;SDS011;2865;53.114;9.130;2022-07-18T06:13:56;2.80;;;2.60;;
5684;SDS011;2865;53.114;9.130;2022-07-18T06:16:21;5.20;;;3.00;;
5684;SDS011;2865;53.114;9.130;2022-07-18T06:18:46;4.50;;;2.63;;
5684;SDS011;2865;53.114;9.130;2022-07-18T06:21:12;2.83;;;2.50;;
5684;SDS011;2865;53.114;9.130;2022-07-18T06:23:37;3.03;;;2.60;;
5684;SDS011;2865;53.114;9.130;2022-07-18T06:26:03;3.90;;;2.50;;
5684;SDS011;2865;53.114;9.130;2022-07-18T06:28:28;5.23;;;2.30;;
5684;SDS011;2865;53.114;9.130;2022-07-18T06:30:54;6.20;;;2.80;;
5684;SDS011;2865;53.114;9.130;2022-07-18T06:33:19;4.30;;;2.67;;
5684;SDS011;2865;53.114;9.130;2022-07-18T06:35:44;4.93;;;2.50;;
5684;SDS011;2865;53.114;9.130;2022-07-18T06:38:10;3.60;;;3.10;;
5684;SDS011;2865;53.114;9.130;2022-07-18T06:40:35;6.23;;;2.50;;
5684;SDS011;2865;53.114;9.130;2022-07-18T06:43:01;3.47;;;2.27;;
5684;SDS011;2865;53.114;9.130;2022-07-18T06:45:26;4.20;;;2.60;;
5684;SDS011;2865;53.114;9.130;2022-07-18T06:47:51;2.80;;;2.00;;
5684;SDS011;2865;53.114;9.130;2022-07-18T06:50:17;5.60;;;2.47;;
5684;SDS011;2865;53.114;9.130;2022-07-18T06:52:43;2.40;;;2.00;;
5684;SDS011;2865;53.114;9.130;2022-07-18T06:55:08;2.97;;;2.43;;
5684;SDS011;2865;53.114;9.130;2022-07-18T06:57:34;2.53;;;2.27;;
5684;SDS011;2865;53.114;9.130;2022-07-18T06:59:59;5.23;;;2.00;;
5684;SDS011;2865;53.114;9.130;2022-07-18T07:02:25;3.00;;;2.67;;
5684;SDS011;2865;53.114;9.130;2022-07-18T07:04:50;2.43;;;2.00;;
5684;SDS011;2865;53.114;9.130;2022-07-18T07:07:15;4.53;;;2.30;;
5684;SDS011;2865;53.114;9.130;2022-07-18T07:09:41;5.93;;;2.17;;
5684;SDS011;2865;53.114;9.130;2022-07-18T07:12:06;6.73;;;2.10;;
5684;SDS011;2865;53.114;9.130;2022-07-18T07:14:31;2.43;;;2.23;;
5684;SDS011;2865;53.114;9.130;2022-07-18T07:16:57;3.17;;;2.13;;
5684;SDS011;2865;53.114;9.130;2022-07-18T07:19:22;2.73;;;2.50;;
5684;SDS011;2865;53.114;9.130;2022-07-18T07:21:48;2.43;;;1.37;;
5684;SDS011;2865;53.114;9.130;2022-07-18T07:24:13;4.00;;;2.13;;
5684;SDS011;2865;53.114;9.130;2022-07-18T07:26:39;1.83;;;1.73;;
5684;SDS011;2865;53.114;9.130;2022-07-18T07:29:05;4.57;;;2.00;;
5684;SDS011;2865;53.114;9.130;2022-07-18T07:31:30;3.07;;;2.10;;
5684;SDS011;2865;53.114;9.130;2022-07-18T07:33:55;7.00;;;1.93;;
5684;SDS011;2865;53.114;9.130;2022-07-18T07:36:21;4.90;;;1.90;;
5684;SDS011;2865;53.114;9.130;2022-07-18T07:38:47;5.33;;;1.90;;
5684;SDS011;2865;53.114;9.130;2022-07-18T07:41:12;4.73;;;1.97;;
5684;SDS011;2865;53.114;9.130;2022-07-18T07:43:37;3.08;;;1.50;;
5684;SDS011;2865;53.114;9.130;2022-07-18T07:46:03;5.60;;;2.23;;
5684;SDS011;2865;53.114;9.130;2022-07-18T07:48:28;3.00;;;1.60;;
5684;SDS011;2865;53.114;9.130;2022-07-18T07:50:54;7.33;;;3.70;;
5684;SDS011;2865;53.114;9.130;2022-07-18T07:53:19;3.87;;;1.93;;
5684;SDS011;2865;53.114;9.130;2022-07-18T07:55:45;5.60;;;1.80;;
5684;SDS011;2865;53.114;9.130;2022-07-18T07:58:10;6.50;;;1.60;;
5684;SDS011;2865;53.114;9.130;2022-07-18T08:00:35;3.73;;;1.83;;
5684;SDS011;2865;53.114;9.130;2022-07-18T08:03:02;2.20;;;1.33;;
5684;SDS011;2865;53.114;9.130;2022-07-18T08:05:27;3.00;;;2.67;;
5684;SDS011;2865;53.114;9.130;2022-07-18T08:07:52;2.93;;;1.73;;
5684;SDS011;2865;53.114;9.130;2022-07-18T08:10:18;3.20;;;1.27;;
5684;SDS011;2865;53.114;9.130;2022-07-18T08:12:42;2.13;;;1.40;;
5684;SDS011;2865;53.114;9.130;2022-07-18T08:15:08;5.73;;;2.00;;
5684;SDS011;2865;53.114;9.130;2022-07-18T08:17:34;4.47;;;1.53;;
5684;SDS011;2865;53.114;9.130;2022-07-18T08:19:59;3.07;;;1.77;;
5684;SDS011;2865;53.114;9.130;2022-07-18T08:22:24;1.90;;;1.33;;
5684;SDS011;2865;53.114;9.130;2022-07-18T08:24:50;3.67;;;1.67;;
5684;SDS011;2865;53.114;9.130;2022-07-18T08:27:15;2.60;;;1.30;;
5684;SDS011;2865;53.114;9.130;2022-07-18T08:29:41;6.23;;;2.17;;
5684;SDS011;2865;53.114;9.130;2022-07-18T08:32:06;6.27;;;2.27;;
5684;SDS011;2865;53.114;9.130;2022-07-18T08:34:31;2.60;;;1.50;;
5684;SDS011;2865;53.114;9.130;2022-07-18T08:36:57;2.80;;;1.07;;
5684;SDS011;2865;53.114;9.130;2022-07-18T08:39:22;2.67;;;1.67;;
5684;SDS011;2865;53.114;9.130;2022-07-18T08:41:48;4.97;;;1.40;;
5684;SDS011;2865;53.114;9.130;2022-07-18T08:44:13;1.67;;;1.50;;
5684;SDS011;2865;53.114;9.130;2022-07-18T08:46:39;2.20;;;1.40;;
5684;SDS011;2865;53.114;9.130;2022-07-18T08:49:04;2.33;;;1.60;;
5684;SDS011;2865;53.114;9.130;2022-07-18T08:51:30;3.17;;;1.40;;
5684;SDS011;2865;53.114;9.130;2022-07-18T08:53:55;1.50;;;1.40;;
5684;SDS011;2865;53.114;9.130;2022-07-18T08:56:20;2.13;;;1.70;;
5684;SDS011;2865;53.114;9.130;2022-07-18T08:58:46;6.23;;;1.60;;
5684;SDS011;2865;53.114;9.130;2022-07-18T09:01:11;2.50;;;1.60;;
5684;SDS011;2865;53.114;9.130;2022-07-18T09:03:36;4.27;;;2.30;;
5684;SDS011;2865;53.114;9.130;2022-07-18T09:06:03;5.03;;;2.33;;
5684;SDS011;2865;53.114;9.130;2022-07-18T09:08:31;2.30;;;2.00;;
5684;SDS011;2865;53.114;9.130;2022-07-18T09:10:57;3.93;;;2.30;;
5684;SDS011;2865;53.114;9.130;2022-07-18T09:13:23;3.20;;;1.83;;
5684;SDS011;2865;53.114;9.130;2022-07-18T09:18:26;4.30;;;2.47;;
5684;SDS011;2865;53.114;9.130;2022-07-18T09:21:00;4.30;;;2.10;;
5684;SDS011;2865;53.114;9.130;2022-07-18T09:23:27;3.00;;;1.70;;
5684;SDS011;2865;53.114;9.130;2022-07-18T09:25:52;4.73;;;2.23;;
5684;SDS011;2865;53.114;9.130;2022-07-18T09:28:17;5.60;;;2.83;;
5684;SDS011;2865;53.114;9.130;2022-07-18T09:30:42;4.53;;;2.70;;
5684;SDS011;2865;53.114;9.130;2022-07-18T09:33:08;3.97;;;2.70;;
5684;SDS011;2865;53.114;9.130;2022-07-18T09:35:35;4.87;;;3.03;;
5684;SDS011;2865;53.114;9.130;2022-07-18T09:38:03;18.80;;;3.20;;
5684;SDS011;2865;53.114;9.130;2022-07-18T09:40:28;4.10;;;2.80;;
5684;SDS011;2865;53.114;9.130;2022-07-18T09:42:53;9.43;;;2.27;;
5684;SDS011;2865;53.114;9.130;2022-07-18T09:45:24;4.33;;;2.70;;
5684;SDS011;2865;53.114;9.130;2022-07-18T09:47:53;3.80;;;2.57;;
5684;SDS011;2865;53.114;9.130;2022-07-18T09:50:19;4.73;;;3.10;;
5684;SDS011;2865;53.114;9.130;2022-07-18T09:52:44;4.70;;;2.33;;
5684;SDS011;2865;53.114;9.130;2022-07-18T09:55:09;4.40;;;2.80;;
5684;SDS011;2865;53.114;9.130;2022-07-18T09:57:35;5.43;;;2.43;;
5684;SDS011;2865;53.114;9.130;2022-07-18T10:00:00;4.43;;;3.00;;
5684;SDS011;2865;53.114;9.130;2022-07-18T10:02:26;3.10;;;2.50;;
5684;SDS011;2865;53.114;9.130;2022-07-18T10:04:51;3.63;;;2.60;;
5684;SDS011;2865;53.114;9.130;2022-07-18T10:07:17;4.53;;;2.60;;
5684;SDS011;2865;53.114;9.130;2022-07-18T10:09:42;3.67;;;3.20;;
5684;SDS011;2865;53.114;9.130;2022-07-18T10:12:08;5.87;;;3.13;;
5684;SDS011;2865;53.114;9.130;2022-07-18T10:14:33;3.90;;;3.17;;
5684;SDS011;2865;53.114;9.130;2022-07-18T10:16:59;4.30;;;3.27;;
5684;SDS011;2865;53.114;9.130;2022-07-18T10:19:24;6.80;;;3.10;;
5684;SDS011;2865;53.114;9.130;2022-07-18T10:21:49;5.33;;;3.47;;
5684;SDS011;2865;53.114;9.130;2022-07-18T10:24:16;3.60;;;3.00;;
5684;SDS011;2865;53.114;9.130;2022-07-18T10:26:42;3.23;;;2.93;;
5684;SDS011;2865;53.114;9.130;2022-07-18T10:29:08;5.07;;;3.23;;
5684;SDS011;2865;53.114;9.130;2022-07-18T10:31:37;3.13;;;2.83;;
5684;SDS011;2865;53.114;9.130;2022-07-18T10:34:10;7.13;;;3.60;;
5684;SDS011;2865;53.114;9.130;2022-07-18T10:36:36;5.83;;;3.67;;
5684;SDS011;2865;53.114;9.130;2022-07-18T10:39:02;4.43;;;3.33;;
5684;SDS011;2865;53.114;9.130;2022-07-18T10:41:27;4.73;;;2.80;;
5684;SDS011;2865;53.114;9.130;2022-07-18T10:43:53;4.00;;;2.77;;
5684;SDS011;2865;53.114;9.130;2022-07-18T10:46:18;3.93;;;2.97;;
5684;SDS011;2865;53.114;9.130;2022-07-18T10:48:47;5.20;;;2.83;;
5684;SDS011;2865;53.114;9.130;2022-07-18T10:51:12;4.33;;;3.30;;
5684;SDS011;2865;53.114;9.130;2022-07-18T10:56:14;9.03;;;3.30;;
5684;SDS011;2865;53.114;9.130;2022-07-18T10:58:40;4.50;;;3.17;;
5684;SDS011;2865;53.114;9.130;2022-07-18T11:01:05;5.70;;;3.00;;
5684;SDS011;2865;53.114;9.130;2022-07-18T11:03:30;4.53;;;3.20;;
5684;SDS011;2865;53.114;9.130;2022-07-18T11:05:56;3.53;;;3.10;;
5684;SDS011;2865;53.114;9.130;2022-07-18T11:08:21;6.43;;;3.80;;
5684;SDS011;2865;53.114;9.130;2022-07-18T11:13:28;5.30;;;4.00;;
5684;SDS011;2865;53.114;9.130;2022-07-18T11:15:55;3.80;;;3.27;;
5684;SDS011;2865;53.114;9.130;2022-07-18T11:18:23;4.97;;;4.00;;
5684;SDS011;2865;53.114;9.130;2022-07-18T11:20:48;4.77;;;3.47;;
5684;SDS011;2865;53.114;9.130;2022-07-18T11:23:21;3.83;;;3.53;;
5684;SDS011;2865;53.114;9.130;2022-07-18T11:25:48;5.10;;;3.47;;
5684;SDS011;2865;53.114;9.130;2022-07-18T11:28:12;4.03;;;3.50;;
5684;SDS011;2865;53.114;9.130;2022-07-18T11:30:38;5.87;;;3.73;;
5684;SDS011;2865;53.114;9.130;2022-07-18T11:33:03;6.73;;;3.87;;
5684;SDS011;2865;53.114;9.130;2022-07-18T11:35:28;6.07;;;3.70;;
5684;SDS011;2865;53.114;9.130;2022-07-18T11:37:53;4.03;;;3.63;;
5684;SDS011;2865;53.114;9.130;2022-07-18T11:40:19;3.77;;;3.30;;
5684;SDS011;2865;53.114;9.130;2022-07-18T11:42:44;5.97;;;3.33;;
5684;SDS011;2865;53.114;9.130;2022-07-18T11:45:11;3.60;;;2.90;;
5684;SDS011;2865;53.114;9.130;2022-07-18T11:47:38;4.83;;;3.60;;
5684;SDS011;2865;53.114;9.130;2022-07-18T11:50:03;9.80;;;3.40;;
5684;SDS011;2865;53.114;9.130;2022-07-18T11:52:29;4.70;;;3.70;;
5684;SDS011;2865;53.114;9.130;2022-07-18T11:54:54;5.70;;;3.97;;
5684;SDS011;2865;53.114;9.130;2022-07-18T11:57:26;7.60;;;3.47;;
5684;SDS011;2865;53.114;9.130;2022-07-18T11:59:51;5.07;;;3.30;;
5684;SDS011;2865;53.114;9.130;2022-07-18T12:02:16;5.93;;;3.77;;
5684;SDS011;2865;53.114;9.130;2022-07-18T12:04:41;4.53;;;3.93;;
5684;SDS011;2865;53.114;9.130;2022-07-18T12:07:11;4.90;;;3.70;;
5684;SDS011;2865;53.114;9.130;2022-07-18T12:09:36;4.63;;;3.90;;
5684;SDS011;2865;53.114;9.130;2022-07-18T12:12:07;5.10;;;4.07;;
5684;SDS011;2865;53.114;9.130;2022-07-18T12:14:26;5.90;;;4.70;;
5684;SDS011;2865;53.114;9.130;2022-07-18T12:16:56;9.07;;;4.13;;
5684;SDS011;2865;53.114;9.130;2022-07-18T12:19:21;6.47;;;4.90;;
5684;SDS011;2865;53.114;9.130;2022-07-18T12:21:55;4.70;;;4.00;;
5684;SDS011;2865;53.114;9.130;2022-07-18T12:29:32;5.80;;;4.23;;
5684;SDS011;2865;53.114;9.130;2022-07-18T12:31:57;4.00;;;3.60;;
5684;SDS011;2865;53.114;9.130;2022-07-18T12:34:22;6.70;;;4.33;;
5684;SDS011;2865;53.114;9.130;2022-07-18T12:36:51;4.60;;;3.57;;
5684;SDS011;2865;53.114;9.130;2022-07-18T12:39:27;4.00;;;3.60;;
5684;SDS011;2865;53.114;9.130;2022-07-18T12:41:52;6.57;;;3.70;;
5684;SDS011;2865;53.114;9.130;2022-07-18T12:44:17;4.03;;;3.63;;
5684;SDS011;2865;53.114;9.130;2022-07-18T12:46:43;9.80;;;3.53;;
5684;SDS011;2865;53.114;9.130;2022-07-18T12:49:08;9.90;;;4.47;;
5684;SDS011;2865;53.114;9.130;2022-07-18T12:51:33;5.77;;;3.27;;
5684;SDS011;2865;53.114;9.130;2022-07-18T12:53:59;3.67;;;3.17;;
5684;SDS011;2865;53.114;9.130;2022-07-18T12:56:24;4.80;;;3.70;;
5684;SDS011;2865;53.114;9.130;2022-07-18T12:58:49;4.67;;;3.80;;
5684;SDS011;2865;53.114;9.130;2022-07-18T13:01:15;4.80;;;3.40;;
5684;SDS011;2865;53.114;9.130;2022-07-18T13:03:40;3.97;;;3.57;;
5684;SDS011;2865;53.114;9.130;2022-07-18T13:06:05;5.60;;;3.80;;
5684;SDS011;2865;53.114;9.130;2022-07-18T13:08:31;11.27;;;4.00;;
5684;SDS011;2865;53.114;9.130;2022-07-18T13:10:57;5.90;;;3.07;;
5684;SDS011;2865;53.114;9.130;2022-07-18T13:13:21;4.80;;;3.03;;
5684;SDS011;2865;53.114;9.130;2022-07-18T13:15:47;4.50;;;3.10;;
5684;SDS011;2865;53.114;9.130;2022-07-18T13:18:12;4.87;;;3.10;;
5684;SDS011;2865;53.114;9.130;2022-07-18T13:20:37;4.73;;;3.47;;
5684;SDS011;2865;53.114;9.130;2022-07-18T13:23:03;3.73;;;3.37;;
5684;SDS011;2865;53.114;9.130;2022-07-18T13:25:28;5.90;;;3.43;;
5684;SDS011;2865;53.114;9.130;2022-07-18T13:27:53;3.70;;;3.23;;
5684;SDS011;2865;53.114;9.130;2022-07-18T13:30:19;4.23;;;3.23;;
5684;SDS011;2865;53.114;9.130;2022-07-18T13:32:44;4.23;;;3.60;;
5684;SDS011;2865;53.114;9.130;2022-07-18T13:35:09;4.53;;;3.67;;
5684;SDS011;2865;53.114;9.130;2022-07-18T13:37:35;4.00;;;2.80;;
5684;SDS011;2865;53.114;9.130;2022-07-18T13:40:00;3.20;;;2.63;;
5684;SDS011;2865;53.114;9.130;2022-07-18T13:42:25;5.20;;;3.03;;
5684;SDS011;2865;53.114;9.130;2022-07-18T13:44:51;3.63;;;3.00;;
5684;SDS011;2865;53.114;9.130;2022-07-18T13:47:16;3.80;;;3.10;;
5684;SDS011;2865;53.114;9.130;2022-07-18T13:49:41;5.23;;;3.20;;
5684;SDS011;2865;53.114;9.130;2022-07-18T13:52:07;4.60;;;3.10;;
5684;SDS011;2865;53.114;9.130;2022-07-18T13:54:32;3.80;;;2.87;;
5684;SDS011;2865;53.114;9.130;2022-07-18T13:56:57;4.70;;;2.67;;
5684;SDS011;2865;53.114;9.130;2022-07-18T13:59:22;3.23;;;2.70;;
5684;SDS011;2865;53.114;9.130;2022-07-18T14:01:48;5.87;;;3.00;;
5684;SDS011;2865;53.114;9.130;2022-07-18T14:04:13;9.40;;;3.67;;
5684;SDS011;2865;53.114;9.130;2022-07-18T14:06:38;3.57;;;3.27;;
5684;SDS011;2865;53.114;9.130;2022-07-18T14:09:04;3.80;;;3.40;;
5684;SDS011;2865;53.114;9.130;2022-07-18T14:11:29;4.57;;;3.50;;
5684;SDS011;2865;53.114;9.130;2022-07-18T14:13:54;3.77;;;3.10;;
5684;SDS011;2865;53.114;9.130;2022-07-18T14:16:20;4.37;;;3.13;;
5684;SDS011;2865;53.114;9.130;2022-07-18T14:18:45;4.40;;;3.47;;
5684;SDS011;2865;53.114;9.130;2022-07-18T14:21:10;3.10;;;2.80;;
5684;SDS011;2865;53.114;9.130;2022-07-18T14:23:36;3.00;;;2.70;;
5684;SDS011;2865;53.114;9.130;2022-07-18T14:26:01;4.43;;;2.50;;
5684;SDS011;2865;53.114;9.130;2022-07-18T14:28:26;3.10;;;2.67;;
5684;SDS011;2865;53.114;9.130;2022-07-18T14:30:52;3.10;;;2.80;;
5684;SDS011;2865;53.114;9.130;2022-07-18T14:33:17;2.37;;;2.13;;
5684;SDS011;2865;53.114;9.130;2022-07-18T14:35:42;4.47;;;3.27;;
5684;SDS011;2865;53.114;9.130;2022-07-18T14:38:08;2.83;;;2.50;;
5684;SDS011;2865;53.114;9.130;2022-07-18T14:40:33;5.73;;;3.17;;
5684;SDS011;2865;53.114;9.130;2022-07-18T14:42:58;3.77;;;3.20;;
5684;SDS011;2865;53.114;9.130;2022-07-18T14:45:24;5.17;;;3.20;;
5684;SDS011;2865;53.114;9.130;2022-07-18T14:47:49;4.17;;;2.97;;
5684;SDS011;2865;53.114;9.130;2022-07-18T14:50:14;4.37;;;3.40;;
5684;SDS011;2865;53.114;9.130;2022-07-18T14:52:40;4.47;;;2.97;;
5684;SDS011;2865;53.114;9.130;2022-07-18T14:55:05;4.27;;;3.33;;
5684;SDS011;2865;53.114;9.130;2022-07-18T14:57:31;4.80;;;3.27;;
5684;SDS011;2865;53.114;9.130;2022-07-18T14:59:56;4.87;;;3.77;;
5684;SDS011;2865;53.114;9.130;2022-07-18T15:02:22;2.70;;;2.50;;
5684;SDS011;2865;53.114;9.130;2022-07-18T15:04:47;5.60;;;2.67;;
5684;SDS011;2865;53.114;9.130;2022-07-18T15:07:12;10.63;;;3.00;;
5684;SDS011;2865;53.114;9.130;2022-07-18T15:09:38;5.70;;;3.40;;
5684;SDS011;2865;53.114;9.130;2022-07-18T15:12:03;9.50;;;3.37;;
5684;SDS011;2865;53.114;9.130;2022-07-18T15:14:28;8.60;;;3.57;;
5684;SDS011;2865;53.114;9.130;2022-07-18T15:16:54;4.30;;;3.33;;